Time,TemperatureF,DewpointF,PressureIn,WindDirection,WindDirectionDegrees,WindSpeedMPH,WindSpeedGustMPH,Humidity,HourlyPrecipIn,Conditions,Clouds,dailyrainin,SoftwareType,DateUTC
2013-01-31 00:02:00,49.1,19.0,30.19,NE,40,3.0,5.0,30,0.00,,,0.00,meteohub,2013-01-31 06:02:00,
2013-01-31 00:07:00,48.9,19.6,30.19,NE,51,2.0,5.0,31,0.00,,,0.00,meteohub,2013-01-31 06:07:00,
2013-01-31 00:12:00,48.9,19.6,30.19,NE,49,2.0,5.0,31,0.00,,,0.00,meteohub,2013-01-31 06:12:00,
2013-01-31 00:18:00,48.7,19.4,30.19,NE,54,1.0,4.0,31,0.00,,,0.00,meteohub,2013-01-31 06:18:00,
2013-01-31 00:23:00,48.6,19.2,30.19,East,94,1.0,4.0,31,0.00,,,0.00,meteohub,2013-01-31 06:23:00,
2013-01-31 00:28:00,48.7,19.4,30.20,East,94,2.0,3.0,31,0.00,,,0.00,meteohub,2013-01-31 06:28:00,
2013-01-31 00:33:00,48.7,20.1,30.20,East,96,1.0,3.0,32,0.00,,,0.00,meteohub,2013-01-31 06:33:00,
2013-01-31 00:38:00,48.7,19.4,30.20,East,97,1.0,3.0,31,0.00,,,0.00,meteohub,2013-01-31 06:38:00,
2013-01-31 00:43:00,48.6,19.2,30.21,ESE,117,1.0,2.0,31,0.00,,,0.00,meteohub,2013-01-31 06:43:00,
2013-01-31 00:48:00,48.6,19.2,30.20,ESE,117,1.0,2.0,31,0.00,,,0.00,meteohub,2013-01-31 06:48:00,
2013-01-31 00:53:00,48.4,19.0,30.20,ESE,117,1.0,2.0,31,0.00,,,0.00,meteohub,2013-01-31 06:53:00,
2013-01-31 00:58:00,48.0,19.6,30.20,ESE,117,0.0,2.0,32,0.00,,,0.00,meteohub,2013-01-31 06:58:00,
2013-01-31 01:03:00,47.8,20.1,30.19,ESE,117,1.0,1.0,33,0.00,,,0.00,meteohub,2013-01-31 07:03:00,
2013-01-31 01:08:00,48.0,21.0,30.20,ESE,115,1.0,1.0,34,0.00,,,0.00,meteohub,2013-01-31 07:08:00,
2013-01-31 01:13:00,48.2,21.7,30.20,ESE,115,0.0,1.0,35,0.00,,,0.00,meteohub,2013-01-31 07:13:00,
2013-01-31 01:18:00,48.4,21.9,30.21,ESE,114,0.0,1.0,35,0.00,,,0.00,meteohub,2013-01-31 07:18:00,
2013-01-31 01:23:00,48.4,21.9,30.21,ESE,114,0.0,1.0,35,0.00,,,0.00,meteohub,2013-01-31 07:23:00,
2013-01-31 01:28:00,48.6,22.8,30.21,ESE,114,0.0,1.0,36,0.00,,,0.00,meteohub,2013-01-31 07:28:00,
2013-01-31 01:33:00,48.9,23.2,30.20,East,81,0.0,1.0,36,0.00,,,0.00,meteohub,2013-01-31 07:33:00,
2013-01-31 01:39:00,49.1,23.9,30.20,East,82,1.0,2.0,37,0.00,,,0.00,meteohub,2013-01-31 07:39:00,
2013-01-31 01:44:00,49.3,24.8,30.21,East,88,0.0,2.0,38,0.00,,,0.00,meteohub,2013-01-31 07:44:00,
2013-01-31 01:49:00,48.9,24.4,30.20,East,88,0.0,1.0,38,0.00,,,0.00,meteohub,2013-01-31 07:49:00,
2013-01-31 01:54:00,48.0,24.3,30.20,East,88,0.0,1.0,39,0.00,,,0.00,meteohub,2013-01-31 07:54:00,
2013-01-31 01:59:00,47.3,24.8,30.20,East,87,0.0,1.0,41,0.00,,,0.00,meteohub,2013-01-31 07:59:00,
2013-01-31 02:04:00,46.8,24.8,30.20,East,87,0.0,0.0,42,0.00,,,0.00,meteohub,2013-01-31 08:04:00,
2013-01-31 02:09:00,46.2,25.0,30.19,East,87,0.0,0.0,43,0.00,,,0.00,meteohub,2013-01-31 08:09:00,
2013-01-31 02:14:00,45.9,25.2,30.19,East,88,0.0,0.0,44,0.00,,,0.00,meteohub,2013-01-31 08:14:00,
2013-01-31 02:19:00,45.7,24.4,30.19,East,88,0.0,0.0,43,0.00,,,0.00,meteohub,2013-01-31 08:19:00,
2013-01-31 02:24:00,45.7,25.5,30.19,East,87,0.0,0.0,45,0.00,,,0.00,meteohub,2013-01-31 08:24:00,
2013-01-31 02:29:00,45.7,25.0,30.19,East,86,0.0,0.0,44,0.00,,,0.00,meteohub,2013-01-31 08:29:00,
2013-01-31 02:34:00,45.5,25.3,30.19,SSW,205,1.0,0.0,45,0.00,,,0.00,meteohub,2013-01-31 08:34:00,
2013-01-31 02:39:00,45.7,24.4,30.19,SW,222,1.0,2.0,43,0.00,,,0.00,meteohub,2013-01-31 08:39:00,
2013-01-31 02:44:00,45.3,24.6,30.19,SW,224,0.0,2.0,44,0.00,,,0.00,meteohub,2013-01-31 08:44:00,
2013-01-31 02:49:00,45.0,23.7,30.19,SW,224,0.0,2.0,43,0.00,,,0.00,meteohub,2013-01-31 08:49:00,
2013-01-31 02:54:00,45.0,24.4,30.19,SW,224,0.0,2.0,44,0.00,,,0.00,meteohub,2013-01-31 08:54:00,
2013-01-31 03:00:00,45.0,25.0,30.19,SW,224,0.0,1.0,45,0.00,,,0.00,meteohub,2013-01-31 09:00:00,
2013-01-31 03:05:00,44.6,24.1,30.20,West,264,0.0,1.0,44,0.00,,,0.00,meteohub,2013-01-31 09:05:00,
2013-01-31 03:10:00,44.1,23.5,30.20,WSW,245,2.0,2.0,44,0.00,,,0.00,meteohub,2013-01-31 09:10:00,
2013-01-31 03:15:00,43.5,23.0,30.20,WSW,249,1.0,2.0,44,0.00,,,0.00,meteohub,2013-01-31 09:15:00,
2013-01-31 03:20:00,43.3,22.8,30.20,SSW,193,0.0,3.0,44,0.00,,,0.00,meteohub,2013-01-31 09:20:00,
2013-01-31 03:25:00,43.2,22.6,30.20,SSW,193,0.0,3.0,44,0.00,,,0.00,meteohub,2013-01-31 09:25:00,
2013-01-31 03:30:00,42.6,21.2,30.20,West,263,0.0,3.0,42,0.00,,,0.00,meteohub,2013-01-31 09:30:00,
2013-01-31 03:35:00,42.1,20.7,30.20,SW,233,0.0,2.0,42,0.00,,,0.00,meteohub,2013-01-31 09:35:00,
2013-01-31 03:40:00,41.5,19.6,30.20,South,172,0.0,1.0,41,0.00,,,0.00,meteohub,2013-01-31 09:40:00,
2013-01-31 03:45:00,41.4,19.4,30.20,SSW,205,0.0,2.0,41,0.00,,,0.00,meteohub,2013-01-31 09:45:00,
2013-01-31 03:50:00,41.0,19.6,30.19,NE,53,0.0,2.0,42,0.00,,,0.00,meteohub,2013-01-31 09:50:00,
2013-01-31 03:55:00,40.8,19.6,30.19,WNW,285,1.0,2.0,42,0.00,,,0.00,meteohub,2013-01-31 09:55:00,
2013-01-31 04:00:00,40.6,19.4,30.20,West,276,0.0,2.0,42,0.00,,,0.00,meteohub,2013-01-31 10:00:00,
2013-01-31 04:05:00,40.5,19.2,30.20,WSW,243,0.0,2.0,42,0.00,,,0.00,meteohub,2013-01-31 10:05:00,
2013-01-31 04:10:00,40.5,19.2,30.21,WNW,284,0.0,2.0,42,0.00,,,0.00,meteohub,2013-01-31 10:10:00,
2013-01-31 04:15:00,40.5,19.2,30.21,West,270,0.0,2.0,42,0.00,,,0.00,meteohub,2013-01-31 10:15:00,
2013-01-31 04:20:00,40.5,19.2,30.21,WSW,256,1.0,2.0,42,0.00,,,0.00,meteohub,2013-01-31 10:20:00,
2013-01-31 04:25:00,40.5,19.2,30.21,West,267,0.0,2.0,42,0.00,,,0.00,meteohub,2013-01-31 10:25:00,
2013-01-31 04:30:00,40.5,19.2,30.20,West,269,2.0,2.0,42,0.00,,,0.00,meteohub,2013-01-31 10:30:00,
2013-01-31 04:35:00,40.8,19.6,30.21,WSW,249,2.0,3.0,42,0.00,,,0.00,meteohub,2013-01-31 10:35:00,
2013-01-31 04:40:00,40.3,19.0,30.21,West,260,3.0,3.0,42,0.00,,,0.00,meteohub,2013-01-31 10:40:00,
2013-01-31 04:45:00,40.3,19.0,30.21,West,260,3.0,3.0,42,0.00,,,0.00,meteohub,2013-01-31 10:45:00,
2013-01-31 04:50:00,40.3,19.0,30.21,North,-999,-999.0,3.0,42,0.00,,,0.00,meteohub,2013-01-31 10:50:00,
2013-01-31 07:57:00,43.9,22.8,30.25,North,-999,-999.0,-999.0,43,-99.99,,,0.00,meteohub,2013-01-31 13:57:00,
2013-01-31 08:02:00,44.2,22.6,30.25,North,-999,-999.0,-999.0,42,-99.99,,,0.00,meteohub,2013-01-31 14:02:00,
2013-01-31 08:07:00,44.4,22.8,30.25,West,279,3.0,-999.0,42,0.00,,,0.00,meteohub,2013-01-31 14:07:00,
2013-01-31 08:12:00,44.6,23.0,30.25,WNW,286,4.0,5.0,42,0.00,,,0.00,meteohub,2013-01-31 14:12:00,
2013-01-31 08:18:00,44.8,23.0,30.26,West,273,4.0,5.0,42,0.00,,,0.00,meteohub,2013-01-31 14:18:00,
2013-01-31 08:23:00,45.1,23.4,30.27,West,271,4.0,5.0,42,0.00,,,0.00,meteohub,2013-01-31 14:23:00,
2013-01-31 08:28:00,45.7,23.9,30.27,West,274,3.0,6.0,42,0.00,,,0.00,meteohub,2013-01-31 14:28:00,
2013-01-31 08:33:00,46.0,24.3,30.26,West,269,2.0,6.0,42,0.00,,,0.00,meteohub,2013-01-31 14:33:00,
2013-01-31 08:38:00,46.6,24.8,30.26,West,279,3.0,6.0,42,0.00,,,0.00,meteohub,2013-01-31 14:38:00,
2013-01-31 08:43:00,46.9,25.0,30.27,West,273,2.0,5.0,42,0.00,,,0.00,meteohub,2013-01-31 14:43:00,
2013-01-31 08:48:00,47.8,25.9,30.27,West,271,3.0,4.0,42,0.00,,,0.00,meteohub,2013-01-31 14:48:00,
2013-01-31 08:53:00,48.7,26.6,30.27,SW,222,2.0,5.0,42,0.00,,,0.00,meteohub,2013-01-31 14:53:00,
2013-01-31 08:58:00,49.6,27.5,30.27,West,281,2.0,5.0,42,0.00,,,0.00,meteohub,2013-01-31 14:58:00,
2013-01-31 09:03:00,50.7,28.4,30.27,SW,221,1.0,5.0,42,0.00,,,0.00,meteohub,2013-01-31 15:03:00,
2013-01-31 09:08:00,51.6,28.8,30.27,WSW,255,1.0,5.0,41,0.00,,,0.00,meteohub,2013-01-31 15:08:00,
2013-01-31 09:13:00,52.0,28.9,30.28,SSW,197,1.0,5.0,41,0.00,,,0.00,meteohub,2013-01-31 15:13:00,
2013-01-31 09:18:00,52.2,29.1,30.28,SW,218,2.0,4.0,41,0.00,,,0.00,meteohub,2013-01-31 15:18:00,
2013-01-31 09:23:00,52.3,29.3,30.28,WNW,289,1.0,3.0,41,0.00,,,0.00,meteohub,2013-01-31 15:23:00,
2013-01-31 09:28:00,52.9,29.8,30.27,SW,218,0.0,3.0,41,0.00,,,0.00,meteohub,2013-01-31 15:28:00,
2013-01-31 09:34:00,54.1,30.9,30.28,SSW,194,0.0,3.0,41,0.00,,,0.00,meteohub,2013-01-31 15:34:00,
2013-01-31 09:39:00,55.2,31.3,30.27,SSE,162,0.0,4.0,40,0.00,,,0.00,meteohub,2013-01-31 15:39:00,
2013-01-31 09:44:00,55.9,32.0,30.28,WSW,244,0.0,4.0,40,0.00,,,0.00,meteohub,2013-01-31 15:44:00,
2013-01-31 09:49:00,56.8,32.7,30.27,NW,313,0.0,4.0,40,0.00,,,0.00,meteohub,2013-01-31 15:49:00,
2013-01-31 09:54:00,57.6,32.7,30.28,SW,217,0.0,4.0,39,0.00,,,0.00,meteohub,2013-01-31 15:54:00,
2013-01-31 09:59:00,57.9,33.1,30.28,SW,235,0.0,4.0,39,0.00,,,0.00,meteohub,2013-01-31 15:59:00,
2013-01-31 10:04:00,59.2,33.6,30.28,SSE,165,2.0,3.0,38,0.00,,,0.00,meteohub,2013-01-31 16:04:00,
2013-01-31 10:09:00,60.3,34.5,30.28,SW,214,6.0,6.0,38,0.00,,,0.00,meteohub,2013-01-31 16:09:00,
2013-01-31 10:14:00,61.3,35.6,30.28,SSW,201,6.0,6.0,38,0.00,,,0.00,meteohub,2013-01-31 16:14:00,
2013-01-31 10:19:00,62.2,34.9,30.28,SSW,208,3.0,8.0,36,0.00,,,0.00,meteohub,2013-01-31 16:19:00,
2013-01-31 10:24:00,63.1,35.1,30.27,WNW,290,1.0,8.0,35,0.00,,,0.00,meteohub,2013-01-31 16:24:00,
2013-01-31 10:29:00,64.2,35.2,30.27,SSW,197,2.0,8.0,34,0.00,,,0.00,meteohub,2013-01-31 16:29:00,
2013-01-31 10:34:00,64.0,35.1,30.28,SSW,195,5.0,8.0,34,0.00,,,0.00,meteohub,2013-01-31 16:34:00,
2013-01-31 10:39:00,64.0,33.6,30.28,SSW,193,10.0,12.0,32,0.00,,,0.00,meteohub,2013-01-31 16:39:00,
2013-01-31 10:45:00,64.2,32.9,30.28,SSW,200,5.0,12.0,31,0.00,,,0.00,meteohub,2013-01-31 16:45:00,
2013-01-31 10:50:00,64.9,31.1,30.28,South,179,5.0,13.0,28,0.00,,,0.00,meteohub,2013-01-31 16:50:00,
2013-01-31 10:55:00,65.8,25.9,30.29,SSW,195,4.0,13.0,22,0.00,,,0.00,meteohub,2013-01-31 16:55:00,
2013-01-31 11:00:00,66.0,29.1,30.28,SSE,167,7.0,12.0,25,0.00,,,0.00,meteohub,2013-01-31 17:00:00,
2013-01-31 11:05:00,65.7,26.8,30.28,SSE,153,10.0,12.0,23,0.00,,,0.00,meteohub,2013-01-31 17:05:00,
2013-01-31 11:10:00,65.7,26.8,30.28,South,186,6.0,14.0,23,0.00,,,0.00,meteohub,2013-01-31 17:10:00,
2013-01-31 11:15:00,65.8,25.9,30.29,SSW,209,6.0,14.0,22,0.00,,,0.00,meteohub,2013-01-31 17:15:00,
2013-01-31 11:20:00,66.4,27.5,30.28,SSW,200,5.0,14.0,23,0.00,,,0.00,meteohub,2013-01-31 17:20:00,
2013-01-31 11:25:00,67.6,27.5,30.28,South,184,8.0,11.0,22,0.00,,,0.00,meteohub,2013-01-31 17:25:00,
2013-01-31 11:30:00,67.5,25.0,30.28,SSW,197,7.0,10.0,20,0.00,,,0.00,meteohub,2013-01-31 17:30:00,
2013-01-31 11:35:00,67.5,25.0,30.27,SSE,160,3.0,13.0,20,0.00,,,0.00,meteohub,2013-01-31 17:35:00,
2013-01-31 11:40:00,67.6,23.9,30.27,West,276,1.0,13.0,19,0.00,,,0.00,meteohub,2013-01-31 17:40:00,
2013-01-31 11:45:00,67.8,22.8,30.26,SSW,205,3.0,13.0,18,0.00,,,0.00,meteohub,2013-01-31 17:45:00,
2013-01-31 11:50:00,67.6,22.6,30.26,South,178,5.0,12.0,18,0.00,,,0.00,meteohub,2013-01-31 17:50:00,
2013-01-31 11:55:00,67.6,22.6,30.26,SSW,208,5.0,12.0,18,0.00,,,0.00,meteohub,2013-01-31 17:55:00,
2013-01-31 12:00:00,67.5,23.7,30.26,SE,142,5.0,12.0,19,0.00,,,0.00,meteohub,2013-01-31 18:00:00,
2013-01-31 12:06:00,67.5,23.7,30.26,South,173,8.0,12.0,19,0.00,,,0.00,meteohub,2013-01-31 18:06:00,
2013-01-31 12:11:00,67.3,22.3,30.26,SSW,208,3.0,11.0,18,0.00,,,0.00,meteohub,2013-01-31 18:11:00,
2013-01-31 12:16:00,67.5,23.7,30.25,SE,138,5.0,11.0,19,0.00,,,0.00,meteohub,2013-01-31 18:16:00,
2013-01-31 12:21:00,66.9,24.6,30.26,SSE,149,7.0,10.0,20,0.00,,,0.00,meteohub,2013-01-31 18:21:00,
2013-01-31 12:26:00,66.6,24.3,30.25,SE,141,6.0,10.0,20,0.00,,,0.00,meteohub,2013-01-31 18:26:00,
2013-01-31 12:31:00,66.4,24.1,30.25,SE,136,8.0,11.0,20,0.00,,,0.00,meteohub,2013-01-31 18:31:00,
2013-01-31 12:36:00,66.6,24.3,30.24,ESE,120,4.0,11.0,20,0.00,,,0.00,meteohub,2013-01-31 18:36:00,
2013-01-31 12:41:00,67.1,23.5,30.25,West,278,3.0,9.0,19,0.00,,,0.00,meteohub,2013-01-31 18:41:00,
2013-01-31 12:46:00,67.5,23.7,30.24,SSW,194,2.0,9.0,19,0.00,,,0.00,meteohub,2013-01-31 18:46:00,
2013-01-31 12:51:00,67.8,24.1,30.24,SSE,153,1.0,8.0,19,0.00,,,0.00,meteohub,2013-01-31 18:51:00,
2013-01-31 12:56:00,68.5,24.6,30.23,South,179,4.0,7.0,19,0.00,,,0.00,meteohub,2013-01-31 18:56:00,
2013-01-31 13:01:00,68.2,24.3,30.22,East,93,9.0,9.0,19,0.00,,,0.00,meteohub,2013-01-31 19:01:00,
2013-01-31 13:06:00,68.4,24.4,30.22,ESE,115,4.0,12.0,19,0.00,,,0.00,meteohub,2013-01-31 19:06:00,
2013-01-31 13:11:00,69.3,25.2,30.22,SSW,201,3.0,13.0,19,0.00,,,0.00,meteohub,2013-01-31 19:11:00,
2013-01-31 13:16:00,69.6,24.3,30.21,SW,219,3.0,13.0,18,0.00,,,0.00,meteohub,2013-01-31 19:16:00,
2013-01-31 13:21:00,70.3,24.8,30.21,South,169,5.0,9.0,18,0.00,,,0.00,meteohub,2013-01-31 19:21:00,
2013-01-31 13:26:00,69.8,24.4,30.21,ESE,118,3.0,8.0,18,0.00,,,0.00,meteohub,2013-01-31 19:26:00,
2013-01-31 13:31:00,69.4,24.1,30.20,SSE,158,3.0,8.0,18,0.00,,,0.00,meteohub,2013-01-31 19:31:00,
2013-01-31 13:36:00,70.2,24.6,30.20,SSE,164,5.0,8.0,18,0.00,,,0.00,meteohub,2013-01-31 19:36:00,
2013-01-31 13:41:00,70.2,24.6,30.20,SSE,158,2.0,8.0,18,0.00,,,0.00,meteohub,2013-01-31 19:41:00,
2013-01-31 13:46:00,70.2,24.6,30.20,SSE,150,8.0,11.0,18,0.00,,,0.00,meteohub,2013-01-31 19:46:00,
2013-01-31 13:51:00,69.4,24.1,30.19,SSE,167,3.0,11.0,18,0.00,,,0.00,meteohub,2013-01-31 19:51:00,
2013-01-31 13:56:00,70.0,24.4,30.19,SSE,162,1.0,11.0,18,0.00,,,0.00,meteohub,2013-01-31 19:56:00,
2013-01-31 14:01:00,70.9,25.3,30.19,WSW,242,1.0,9.0,18,0.00,,,0.00,meteohub,2013-01-31 20:01:00,
2013-01-31 14:06:00,71.6,24.4,30.19,WSW,254,1.0,9.0,17,0.00,,,0.00,meteohub,2013-01-31 20:06:00,
2013-01-31 14:11:00,71.4,24.3,30.17,NW,321,2.0,9.0,17,0.00,,,0.00,meteohub,2013-01-31 20:11:00,
2013-01-31 14:16:00,70.7,26.4,30.17,SE,146,10.0,15.0,19,0.00,,,0.00,meteohub,2013-01-31 20:16:00,
2013-01-31 14:21:00,70.3,26.1,30.17,SSE,166,6.0,15.0,19,0.00,,,0.00,meteohub,2013-01-31 20:21:00,
2013-01-31 14:26:00,70.2,26.1,30.17,SE,143,6.0,15.0,19,0.00,,,0.00,meteohub,2013-01-31 20:26:00,
2013-01-31 14:31:00,70.7,25.2,30.17,South,176,6.0,13.0,18,0.00,,,0.00,meteohub,2013-01-31 20:31:00,
2013-01-31 14:36:00,70.5,25.0,30.17,SSE,155,2.0,11.0,18,0.00,,,0.00,meteohub,2013-01-31 20:36:00,
2013-01-31 14:41:00,70.2,24.6,30.17,East,91,2.0,9.0,18,0.00,,,0.00,meteohub,2013-01-31 20:41:00,
2013-01-31 14:46:00,70.2,26.1,30.17,SE,135,2.0,9.0,19,0.00,,,0.00,meteohub,2013-01-31 20:46:00,
2013-01-31 14:51:00,71.6,24.4,30.16,SSE,150,1.0,9.0,17,0.00,,,0.00,meteohub,2013-01-31 20:51:00,
2013-01-31 14:57:00,72.0,24.8,30.16,SE,139,4.0,7.0,17,0.00,,,0.00,meteohub,2013-01-31 20:57:00,
2013-01-31 15:01:00,70.9,25.3,30.16,SSE,150,5.0,12.0,18,0.00,,,0.00,meteohub,2013-01-31 21:01:00,
2013-01-31 15:06:00,70.9,25.3,30.16,SSW,201,2.0,12.0,18,0.00,,,0.00,meteohub,2013-01-31 21:06:00,
2013-01-31 15:11:00,71.2,24.3,30.15,WSW,246,5.0,12.0,17,0.00,,,0.00,meteohub,2013-01-31 21:11:00,
2013-01-31 15:17:00,71.8,24.6,30.15,North,355,1.0,8.0,17,0.00,,,0.00,meteohub,2013-01-31 21:17:00,
2013-01-31 15:21:00,71.6,23.0,30.16,SSW,212,1.0,8.0,16,0.00,,,0.00,meteohub,2013-01-31 21:21:00,
2013-01-31 15:27:00,71.1,22.6,30.15,NW,307,1.0,6.0,16,0.00,,,0.00,meteohub,2013-01-31 21:27:00,
2013-01-31 15:32:00,71.4,25.7,30.15,SSE,155,4.0,5.0,18,0.00,,,0.00,meteohub,2013-01-31 21:32:00,
2013-01-31 15:37:00,70.9,26.6,30.15,ESE,122,2.0,7.0,19,0.00,,,0.00,meteohub,2013-01-31 21:37:00,
2013-01-31 15:42:00,70.5,27.5,30.15,SSE,162,0.0,7.0,20,0.00,,,0.00,meteohub,2013-01-31 21:42:00,
2013-01-31 15:47:00,71.1,30.2,30.15,SSW,211,6.0,7.0,22,0.00,,,0.00,meteohub,2013-01-31 21:47:00,
2013-01-31 15:52:00,71.2,29.3,30.15,SE,130,4.0,12.0,21,0.00,,,0.00,meteohub,2013-01-31 21:52:00,
2013-01-31 15:57:00,70.9,30.2,30.16,SE,129,4.0,12.0,22,0.00,,,0.00,meteohub,2013-01-31 21:57:00,
2013-01-31 16:02:00,71.1,31.5,30.15,NW,307,3.0,12.0,23,0.00,,,0.00,meteohub,2013-01-31 22:02:00,
2013-01-31 16:07:00,71.1,31.5,30.15,SSE,163,7.0,14.0,23,0.00,,,0.00,meteohub,2013-01-31 22:07:00,
2013-01-31 16:12:00,70.5,32.0,30.15,SSE,166,5.0,14.0,24,0.00,,,0.00,meteohub,2013-01-31 22:12:00,
2013-01-31 16:17:00,70.5,33.1,30.15,South,186,7.0,14.0,25,0.00,,,0.00,meteohub,2013-01-31 22:17:00,
2013-01-31 16:22:00,69.8,33.4,30.15,SE,135,8.0,15.0,26,0.00,,,0.00,meteohub,2013-01-31 22:22:00,
2013-01-31 16:27:00,69.3,32.9,30.15,SSE,149,9.0,15.0,26,0.00,,,0.00,meteohub,2013-01-31 22:27:00,
2013-01-31 16:32:00,69.1,32.7,30.15,South,170,8.0,15.0,26,0.00,,,0.00,meteohub,2013-01-31 22:32:00,
2013-01-31 16:37:00,68.7,33.4,30.15,SSE,153,14.0,15.0,27,0.00,,,0.00,meteohub,2013-01-31 22:37:00,
2013-01-31 16:42:00,68.4,33.1,30.15,SSE,152,12.0,21.0,27,0.00,,,0.00,meteohub,2013-01-31 22:42:00,
2013-01-31 16:47:00,68.0,32.7,30.15,South,173,14.0,21.0,27,0.00,,,0.00,meteohub,2013-01-31 22:47:00,
2013-01-31 16:52:00,67.5,33.3,30.15,SE,127,13.0,21.0,28,0.00,,,0.00,meteohub,2013-01-31 22:52:00,
2013-01-31 16:57:00,67.1,34.7,30.15,SSE,152,12.0,19.0,30,0.00,,,0.00,meteohub,2013-01-31 22:57:00,
2013-01-31 17:02:00,66.7,35.1,30.15,SE,126,10.0,20.0,31,0.00,,,0.00,meteohub,2013-01-31 23:02:00,
2013-01-31 17:07:00,66.6,35.8,30.15,SSE,152,10.0,20.0,32,0.00,,,0.00,meteohub,2013-01-31 23:07:00,
2013-01-31 17:12:00,66.2,36.3,30.15,SE,131,8.0,20.0,33,0.00,,,0.00,meteohub,2013-01-31 23:12:00,
2013-01-31 17:17:00,65.8,36.7,30.16,ESE,115,19.0,19.0,34,0.00,,,0.00,meteohub,2013-01-31 23:17:00,
2013-01-31 17:22:00,65.7,36.5,30.16,SE,144,17.0,21.0,34,0.00,,,0.00,meteohub,2013-01-31 23:22:00,
2013-01-31 17:27:00,65.5,37.0,30.16,ESE,123,8.0,21.0,35,0.00,,,0.00,meteohub,2013-01-31 23:27:00,
2013-01-31 17:32:00,65.3,36.9,30.16,SE,127,11.0,21.0,35,0.00,,,0.00,meteohub,2013-01-31 23:32:00,
2013-01-31 17:37:00,64.9,38.1,30.16,SE,134,18.0,20.0,37,0.00,,,0.00,meteohub,2013-01-31 23:37:00,
2013-01-31 17:42:00,64.8,38.5,30.16,ESE,110,12.0,21.0,38,0.00,,,0.00,meteohub,2013-01-31 23:42:00,
2013-01-31 17:47:00,64.4,38.8,30.16,SE,137,11.0,21.0,39,0.00,,,0.00,meteohub,2013-01-31 23:47:00,
2013-01-31 17:52:00,64.0,38.7,30.15,SSE,167,7.0,21.0,39,0.00,,,0.00,meteohub,2013-01-31 23:52:00,
2013-01-31 17:57:00,63.9,39.0,30.15,SE,134,10.0,21.0,40,0.00,,,0.00,meteohub,2013-01-31 23:57:00,
2013-01-31 18:02:00,63.7,39.6,30.16,SE,130,10.0,21.0,41,0.00,,,0.00,meteohub,2013-02-01 00:02:00,
2013-01-31 18:07:00,63.3,39.9,30.16,SSE,167,15.0,20.0,42,0.00,,,0.00,meteohub,2013-02-01 00:07:00,
2013-01-31 18:11:00,63.0,40.1,30.16,ESE,120,10.0,20.0,43,0.00,,,0.00,meteohub,2013-02-01 00:11:00,
2013-01-31 18:16:00,62.8,39.9,30.17,ESE,109,13.0,17.0,43,0.00,,,0.00,meteohub,2013-02-01 00:16:00,
2013-01-31 18:21:00,62.4,40.3,30.17,SE,136,10.0,17.0,44,0.00,,,0.00,meteohub,2013-02-01 00:21:00,
2013-01-31 18:26:00,62.1,39.9,30.17,SE,136,6.0,16.0,44,0.00,,,0.00,meteohub,2013-02-01 00:26:00,
2013-01-31 18:31:00,61.9,40.3,30.17,South,183,7.0,14.0,45,0.00,,,0.00,meteohub,2013-02-01 00:31:00,
2013-01-31 18:36:00,61.5,40.5,30.17,SE,131,9.0,14.0,46,0.00,,,0.00,meteohub,2013-02-01 00:36:00,
2013-01-31 18:41:00,61.3,40.5,30.17,SSE,159,8.0,11.0,46,0.00,,,0.00,meteohub,2013-02-01 00:41:00,
2013-01-31 18:46:00,61.0,40.6,30.17,SE,130,7.0,11.0,47,0.00,,,0.00,meteohub,2013-02-01 00:46:00,
2013-01-31 18:51:00,60.8,40.5,30.17,SE,134,6.0,11.0,47,0.00,,,0.00,meteohub,2013-02-01 00:51:00,
2013-01-31 18:56:00,60.6,40.8,30.17,SE,141,5.0,11.0,48,0.00,,,0.00,meteohub,2013-02-01 00:56:00,
2013-01-31 19:01:00,60.4,41.2,30.17,SSE,156,5.0,10.0,49,0.00,,,0.00,meteohub,2013-02-01 01:01:00,
2013-01-31 19:06:00,60.1,40.8,30.18,SE,145,3.0,10.0,49,0.00,,,0.00,meteohub,2013-02-01 01:06:00,
2013-01-31 19:11:00,59.9,41.2,30.18,ESE,114,4.0,10.0,50,0.00,,,0.00,meteohub,2013-02-01 01:11:00,
2013-01-31 19:16:00,59.7,41.5,30.18,SSE,155,5.0,10.0,51,0.00,,,0.00,meteohub,2013-02-01 01:16:00,
2013-01-31 19:21:00,59.5,41.9,30.19,SSE,153,7.0,10.0,52,0.00,,,0.00,meteohub,2013-02-01 01:21:00,
2013-01-31 19:26:00,59.5,41.9,30.19,SE,128,4.0,8.0,52,0.00,,,0.00,meteohub,2013-02-01 01:26:00,
2013-01-31 19:31:00,59.4,41.7,30.19,SSE,149,4.0,8.0,52,0.00,,,0.00,meteohub,2013-02-01 01:31:00,
2013-01-31 19:36:00,59.2,42.1,30.19,ESE,113,6.0,9.0,53,0.00,,,0.00,meteohub,2013-02-01 01:36:00,
2013-01-31 19:41:00,59.2,42.6,30.20,SSE,151,4.0,9.0,54,0.00,,,0.00,meteohub,2013-02-01 01:41:00,
2013-01-31 19:47:00,59.0,42.8,30.20,SE,146,6.0,10.0,55,0.00,,,0.00,meteohub,2013-02-01 01:47:00,
2013-01-31 19:52:00,59.0,42.8,30.21,SE,138,5.0,10.0,55,0.00,,,0.00,meteohub,2013-02-01 01:52:00,
2013-01-31 19:57:00,59.0,42.8,30.20,SE,146,4.0,9.0,55,0.00,,,0.00,meteohub,2013-02-01 01:57:00,
2013-01-31 20:02:00,58.8,42.6,30.21,SE,128,2.0,9.0,55,0.00,,,0.00,meteohub,2013-02-01 02:02:00,
2013-01-31 20:07:00,58.8,43.2,30.21,SE,128,5.0,7.0,56,0.00,,,0.00,meteohub,2013-02-01 02:07:00,
2013-01-31 20:12:00,58.6,43.5,30.21,SSE,150,6.0,9.0,57,0.00,,,0.00,meteohub,2013-02-01 02:12:00,
2013-01-31 20:17:00,58.6,43.5,30.21,SE,139,7.0,9.0,57,0.00,,,0.00,meteohub,2013-02-01 02:17:00,
2013-01-31 20:21:00,58.6,43.5,30.21,SE,135,4.0,9.0,57,0.00,,,0.00,meteohub,2013-02-01 02:21:00,
2013-01-31 20:26:00,58.5,43.7,30.21,SSE,156,4.0,9.0,58,0.00,,,0.00,meteohub,2013-02-01 02:26:00,
2013-01-31 20:31:00,58.5,43.7,30.21,SE,129,6.0,8.0,58,0.00,,,0.00,meteohub,2013-02-01 02:31:00,
2013-01-31 20:37:00,58.5,43.7,30.22,SSE,155,3.0,9.0,58,0.00,,,0.00,meteohub,2013-02-01 02:37:00,
2013-01-31 20:42:00,58.3,43.5,30.22,SE,135,2.0,9.0,58,0.00,,,0.00,meteohub,2013-02-01 02:42:00,
2013-01-31 20:47:00,58.3,43.5,30.22,ESE,122,3.0,8.0,58,0.00,,,0.00,meteohub,2013-02-01 02:47:00,
2013-01-31 20:52:00,58.3,44.1,30.23,SE,143,3.0,6.0,59,0.00,,,0.00,meteohub,2013-02-01 02:52:00,
2013-01-31 20:57:00,58.5,44.6,30.23,ESE,121,6.0,6.0,60,0.00,,,0.00,meteohub,2013-02-01 02:57:00,
2013-01-31 21:02:00,58.6,44.8,30.22,SSE,149,3.0,8.0,60,0.00,,,0.00,meteohub,2013-02-01 03:02:00,
2013-01-31 21:07:00,58.6,44.8,30.23,SE,141,5.0,8.0,60,0.00,,,0.00,meteohub,2013-02-01 03:07:00,
2013-01-31 21:12:00,58.8,45.0,30.24,ESE,116,3.0,8.0,60,0.00,,,0.00,meteohub,2013-02-01 03:12:00,
2013-01-31 21:17:00,58.8,45.0,30.24,SE,136,5.0,7.0,60,0.00,,,0.00,meteohub,2013-02-01 03:17:00,
2013-01-31 21:22:00,58.8,45.3,30.23,ESE,120,7.0,7.0,61,0.00,,,0.00,meteohub,2013-02-01 03:22:00,
2013-01-31 21:27:00,58.8,45.3,30.24,SE,143,4.0,7.0,61,0.00,,,0.00,meteohub,2013-02-01 03:27:00,
2013-01-31 21:32:00,58.8,45.3,30.24,SSW,193,4.0,7.0,61,0.00,,,0.00,meteohub,2013-02-01 03:32:00,
2013-01-31 21:37:00,58.8,45.3,30.24,SE,139,4.0,7.0,61,0.00,,,0.00,meteohub,2013-02-01 03:37:00,
2013-01-31 21:42:00,58.6,45.7,30.25,SSE,152,4.0,6.0,62,0.00,,,0.00,meteohub,2013-02-01 03:42:00,
2013-01-31 21:47:00,58.5,45.9,30.24,SSE,155,5.0,6.0,63,0.00,,,0.00,meteohub,2013-02-01 03:47:00,
2013-01-31 21:52:00,58.3,46.2,30.24,South,173,5.0,8.0,64,0.00,,,0.00,meteohub,2013-02-01 03:52:00,
2013-01-31 21:57:00,58.1,46.0,30.23,SE,141,3.0,8.0,64,0.00,,,0.00,meteohub,2013-02-01 03:57:00,
2013-01-31 22:02:00,57.7,45.7,30.23,SE,139,4.0,8.0,64,0.00,,,0.00,meteohub,2013-02-01 04:02:00,
2013-01-31 22:07:00,57.7,46.0,30.24,SE,134,2.0,8.0,65,0.00,,,0.00,meteohub,2013-02-01 04:07:00,
2013-01-31 22:12:00,57.7,46.4,30.23,SE,136,3.0,6.0,66,0.00,,,0.00,meteohub,2013-02-01 04:12:00,
2013-01-31 22:17:00,57.7,46.4,30.24,SSE,165,4.0,6.0,66,0.00,,,0.00,meteohub,2013-02-01 04:17:00,
2013-01-31 22:22:00,57.6,46.2,30.23,SE,146,4.0,7.0,66,0.00,,,0.00,meteohub,2013-02-01 04:22:00,
2013-01-31 22:27:00,57.7,46.4,30.23,SSE,165,4.0,7.0,66,0.00,,,0.00,meteohub,2013-02-01 04:27:00,
2013-01-31 22:32:00,57.7,46.0,30.24,SE,126,6.0,7.0,65,0.00,,,0.00,meteohub,2013-02-01 04:32:00,
2013-01-31 22:37:00,57.9,46.6,30.24,SE,137,3.0,6.0,66,0.00,,,0.00,meteohub,2013-02-01 04:37:00,
2013-01-31 22:42:00,58.3,46.6,30.23,SE,128,5.0,7.0,65,0.00,,,0.00,meteohub,2013-02-01 04:42:00,
2013-01-31 22:47:00,58.3,46.6,30.24,ESE,102,3.0,7.0,65,0.00,,,0.00,meteohub,2013-02-01 04:47:00,
2013-01-31 22:52:00,57.9,45.9,30.24,ESE,118,4.0,7.0,64,0.00,,,0.00,meteohub,2013-02-01 04:52:00,
2013-01-31 22:57:00,57.9,45.9,30.24,ESE,110,5.0,6.0,64,0.00,,,0.00,meteohub,2013-02-01 04:57:00,
2013-01-31 23:00:00,57.7,45.7,30.24,ESE,119,4.0,6.0,64,0.00,,,0.00,meteohub,2013-02-01 05:00:00,
2013-01-31 23:01:00,57.7,46.0,30.24,ESE,120,4.0,5.0,65,0.00,,,0.00,meteohub,2013-02-01 05:01:00,
2013-01-31 23:06:00,57.6,46.2,30.24,ESE,122,4.0,5.0,66,0.00,,,0.00,meteohub,2013-02-01 05:06:00,
2013-01-31 23:12:00,57.4,46.6,30.24,ESE,110,3.0,6.0,67,0.00,,,0.00,meteohub,2013-02-01 05:12:00,
2013-01-31 23:17:00,57.4,46.0,30.24,SE,131,3.0,6.0,66,0.00,,,0.00,meteohub,2013-02-01 05:17:00,
2013-01-31 23:22:00,57.4,46.0,30.24,ESE,111,4.0,6.0,66,0.00,,,0.00,meteohub,2013-02-01 05:22:00,
2013-01-31 23:27:00,57.0,46.2,30.24,ESE,119,4.0,6.0,67,0.00,,,0.00,meteohub,2013-02-01 05:27:00,
2013-01-31 23:32:00,57.0,46.6,30.25,ESE,110,3.0,5.0,68,0.00,,,0.00,meteohub,2013-02-01 05:32:00,
2013-01-31 23:37:00,56.8,46.8,30.25,ESE,104,3.0,5.0,69,0.00,,,0.00,meteohub,2013-02-01 05:37:00,
2013-01-31 23:42:00,56.7,46.9,30.24,ESE,110,3.0,6.0,70,0.00,,,0.00,meteohub,2013-02-01 05:42:00,
2013-01-31 23:47:00,56.7,46.9,30.24,ESE,110,3.0,6.0,70,0.00,,,0.00,meteohub,2013-02-01 05:47:00,
2013-01-31 23:52:00,56.7,47.3,30.24,SE,124,4.0,6.0,71,0.00,,,0.00,meteohub,2013-02-01 05:52:00,
2013-01-31 23:57:00,56.5,47.1,30.23,SSE,158,3.0,6.0,71,0.00,,,0.00,meteohub,2013-02-01 05:57:00,